createdAt,value
2018-03-18T00:01:48.597Z,-4.42
2018-03-18T00:02:47.878Z,-4.40
2018-03-18T00:04:41.284Z,-4.40
2018-03-18T00:05:41.716Z,-4.42
2018-03-18T00:07:34.702Z,-4.46
2018-03-18T00:08:33.797Z,-4.42
2018-03-18T00:10:27.028Z,-4.42
2018-03-18T00:11:26.792Z,-4.42
2018-03-18T00:13:21.579Z,-4.42
2018-03-18T00:14:20.155Z,-4.39
2018-03-18T00:16:14.508Z,-4.43
2018-03-18T00:17:13.747Z,-4.36
2018-03-18T00:19:08.427Z,-4.49
2018-03-18T00:20:07.030Z,-4.39
2018-03-18T00:22:00.319Z,-4.39
2018-03-18T00:23:00.785Z,-4.43
2018-03-18T00:24:54.523Z,-4.39
2018-03-18T00:25:53.018Z,-4.46
2018-03-18T00:27:47.314Z,-4.36
2018-03-18T00:28:45.797Z,-4.36
2018-03-18T00:30:40.208Z,-4.42
2018-03-18T00:31:40.101Z,-4.43
2018-03-18T00:33:33.679Z,-4.39
2018-03-18T00:34:34.219Z,-4.35
2018-03-18T00:36:26.631Z,-4.40
2018-03-18T00:37:25.265Z,-4.40
2018-03-18T00:39:18.622Z,-4.43
2018-03-18T00:40:18.422Z,-4.43
2018-03-18T00:42:12.292Z,-4.39
2018-03-18T00:43:11.176Z,-4.47
2018-03-18T00:45:05.822Z,-4.49
2018-03-18T00:46:06.689Z,-4.53
2018-03-18T00:47:59.221Z,-4.42
2018-03-18T00:48:59.475Z,-4.46
2018-03-18T00:50:52.405Z,-4.42
2018-03-18T00:51:51.566Z,-4.49
2018-03-18T00:53:45.107Z,-4.40
2018-03-18T00:54:44.515Z,-4.49
2018-03-18T00:56:37.530Z,-4.50
2018-03-18T00:57:37.327Z,-4.49
2018-03-18T00:59:31.474Z,-4.53
2018-03-18T01:00:31.204Z,-4.50
2018-03-18T01:02:23.973Z,-4.51
2018-03-18T01:03:23.085Z,-4.53
2018-03-18T01:05:16.866Z,-4.47
2018-03-18T01:06:17.299Z,-4.50
2018-03-18T01:08:10.561Z,-4.46
2018-03-18T01:09:09.511Z,-4.57
2018-03-18T01:11:02.780Z,-4.53
2018-03-18T01:12:03.495Z,-4.60
2018-03-18T01:13:02.693Z,-4.49
2018-03-18T01:14:02.396Z,-4.56
2018-03-18T01:15:02.178Z,-4.56
2018-03-18T01:16:02.576Z,-4.57
2018-03-18T01:17:02.042Z,-4.51
2018-03-18T01:18:02.187Z,-4.56
2018-03-18T01:19:01.906Z,-4.58
2018-03-18T01:20:01.847Z,-4.61
2018-03-18T01:21:01.838Z,-4.57
2018-03-18T01:22:01.767Z,-4.68
2018-03-18T01:23:01.702Z,-4.61
2018-03-18T01:24:01.709Z,-4.67
2018-03-18T01:25:01.653Z,-4.68
2018-03-18T01:26:01.564Z,-4.67
2018-03-18T01:27:01.556Z,-4.78
2018-03-18T01:28:01.590Z,-4.63
2018-03-18T01:29:01.450Z,-4.67
2018-03-18T01:30:01.403Z,-4.63
2018-03-18T01:31:01.319Z,-4.78
2018-03-18T01:32:01.271Z,-4.75
2018-03-18T01:33:01.235Z,-4.69
2018-03-18T01:34:01.206Z,-4.61
2018-03-18T01:35:01.154Z,-4.63
2018-03-18T01:36:01.096Z,-4.58
2018-03-18T01:37:01.025Z,-4.75
2018-03-18T01:38:01.586Z,-4.68
2018-03-18T01:39:00.980Z,-4.75
2018-03-18T01:40:00.927Z,-4.72
2018-03-18T01:41:00.838Z,-4.69
2018-03-18T01:42:00.803Z,-4.74
2018-03-18T01:43:00.858Z,-4.74
2018-03-18T01:44:00.710Z,-4.71
2018-03-18T01:45:01.579Z,-4.77
2018-03-18T01:46:00.590Z,-4.67
2018-03-18T01:47:00.543Z,-4.74
2018-03-18T01:48:00.530Z,-4.72
2018-03-18T01:49:00.466Z,-4.77
2018-03-18T01:50:00.404Z,-4.77
2018-03-18T01:51:00.362Z,-4.77
2018-03-18T01:52:00.310Z,-4.75
2018-03-18T01:53:00.300Z,-4.79
2018-03-18T01:54:00.249Z,-4.81
2018-03-18T01:55:00.161Z,-4.71
2018-03-18T01:56:00.203Z,-4.72
2018-03-18T01:57:00.069Z,-4.72
2018-03-18T01:58:00.055Z,-4.58
2018-03-18T01:58:59.955Z,-4.63
2018-03-18T01:59:59.973Z,-4.71
2018-03-18T02:00:59.869Z,-4.77
2018-03-18T02:01:59.828Z,-4.71
2018-03-18T02:02:59.899Z,-4.74
2018-03-18T02:03:59.773Z,-4.74
2018-03-18T02:04:59.689Z,-4.81
2018-03-18T02:05:59.641Z,-4.68
2018-03-18T02:06:59.610Z,-4.75
2018-03-18T02:07:59.559Z,-4.75
2018-03-18T02:08:59.490Z,-4.77
2018-03-18T02:09:59.505Z,-4.74
2018-03-18T02:10:59.394Z,-4.74
2018-03-18T02:11:59.324Z,-4.79
2018-03-18T02:12:59.318Z,-4.90
2018-03-18T02:13:59.237Z,-4.93
2018-03-18T02:14:59.287Z,-4.86
2018-03-18T02:15:59.210Z,-4.79
2018-03-18T02:16:59.105Z,-4.83
2018-03-18T02:17:59.133Z,-4.75
2018-03-18T02:18:59.095Z,-4.87
2018-03-18T02:19:58.949Z,-4.86
2018-03-18T02:20:58.910Z,-4.75
2018-03-18T02:21:58.898Z,-4.77
2018-03-18T02:22:58.791Z,-4.83
2018-03-18T02:23:58.743Z,-4.90
2018-03-18T02:24:58.868Z,-4.90
2018-03-18T02:25:58.666Z,-4.89
2018-03-18T02:26:58.659Z,-4.97
2018-03-18T02:27:58.569Z,-4.90
2018-03-18T02:28:58.585Z,-4.85
2018-03-18T02:29:58.472Z,-4.93
2018-03-18T02:30:59.079Z,-4.86
2018-03-18T02:31:58.356Z,-4.96
2018-03-18T02:32:58.333Z,-4.93
2018-03-18T02:33:58.261Z,-4.93
2018-03-18T02:34:58.212Z,-4.89
2018-03-18T02:35:58.222Z,-4.99
2018-03-18T02:36:58.128Z,-4.99
2018-03-18T02:37:58.084Z,-4.93
2018-03-18T02:38:58.060Z,-5.00
2018-03-18T02:39:58.010Z,-4.95
2018-03-18T02:40:57.938Z,-5.07
2018-03-18T02:41:57.865Z,-5.06
2018-03-18T02:42:57.830Z,-4.97
2018-03-18T02:43:57.837Z,-4.99
2018-03-18T02:44:57.760Z,-5.03
2018-03-18T02:45:57.711Z,-4.86
2018-03-18T02:46:57.671Z,-4.92
2018-03-18T02:47:57.575Z,-4.99
2018-03-18T02:48:57.531Z,-5.00
2018-03-18T02:49:57.523Z,-4.99
2018-03-18T02:50:57.487Z,-4.92
2018-03-18T02:51:57.416Z,-5.06
2018-03-18T02:52:57.334Z,-5.04
2018-03-18T02:53:57.308Z,-4.96
2018-03-18T02:54:57.234Z,-5.06
2018-03-18T02:55:57.216Z,-4.95
2018-03-18T02:56:57.177Z,-5.00
2018-03-18T02:57:57.099Z,-5.03
2018-03-18T02:58:57.084Z,-4.90
2018-03-18T02:59:57.002Z,-4.92
2018-03-18T03:00:56.957Z,-4.99
2018-03-18T03:01:56.940Z,-4.93
2018-03-18T03:02:56.856Z,-4.92
2018-03-18T03:03:56.878Z,-4.99
2018-03-18T03:04:56.742Z,-4.97
2018-03-18T03:05:56.696Z,-5.04
2018-03-18T03:06:56.647Z,-5.08
2018-03-18T03:07:56.596Z,-5.04
2018-03-18T03:08:56.550Z,-4.97
2018-03-18T03:09:56.510Z,-5.04
2018-03-18T03:10:56.467Z,-5.04
2018-03-18T03:11:56.416Z,-5.00
2018-03-18T03:12:56.394Z,-5.04
2018-03-18T03:13:56.372Z,-5.03
2018-03-18T03:14:56.292Z,-4.87
2018-03-18T03:15:56.207Z,-4.92
2018-03-18T03:16:56.160Z,-5.00
2018-03-18T03:17:56.197Z,-4.99
2018-03-18T03:18:56.059Z,-4.95
2018-03-18T03:19:56.012Z,-4.97
2018-03-18T03:20:55.990Z,-4.99
2018-03-18T03:21:55.915Z,-5.00
2018-03-18T03:22:55.889Z,-5.03
2018-03-18T03:23:55.871Z,-5.03
2018-03-18T03:24:55.805Z,-5.03
2018-03-18T03:25:55.788Z,-5.07
2018-03-18T03:26:55.687Z,-5.04
2018-03-18T03:27:55.648Z,-5.00
2018-03-18T03:28:55.591Z,-5.07
2018-03-18T03:29:55.531Z,-5.04
2018-03-18T03:30:55.498Z,-5.00
2018-03-18T03:31:55.471Z,-5.00
2018-03-18T03:32:55.393Z,-5.06
2018-03-18T03:33:55.335Z,-4.95
2018-03-18T03:34:55.294Z,-5.00
2018-03-18T03:35:55.271Z,-5.07
2018-03-18T03:36:55.202Z,-5.04
2018-03-18T03:37:55.132Z,-5.06
2018-03-18T03:38:55.105Z,-5.08
2018-03-18T03:39:55.136Z,-5.06
2018-03-18T03:40:55.041Z,-5.10
2018-03-18T03:41:54.957Z,-5.07
2018-03-18T03:42:54.892Z,-5.08
2018-03-18T03:43:54.905Z,-5.07
2018-03-18T03:44:54.802Z,-5.04
2018-03-18T03:45:54.810Z,-5.08
2018-03-18T03:46:54.694Z,-5.10
2018-03-18T03:47:54.642Z,-5.06
2018-03-18T03:48:54.619Z,-5.07
2018-03-18T03:49:54.584Z,-5.04
2018-03-18T03:50:54.531Z,-5.08
2018-03-18T03:51:54.471Z,-5.14
2018-03-18T03:52:54.405Z,-5.17
2018-03-18T03:53:54.432Z,-5.14
2018-03-18T03:54:54.352Z,-5.17
2018-03-18T03:55:54.261Z,-5.11
2018-03-18T03:56:54.247Z,-5.14
2018-03-18T03:57:54.172Z,-5.17
2018-03-18T03:58:54.123Z,-5.17
2018-03-18T03:59:54.068Z,-5.19
2018-03-18T04:00:54.048Z,-5.17
2018-03-18T04:01:54.012Z,-5.14
2018-03-18T04:02:53.929Z,-5.18
2018-03-18T04:03:54.043Z,-5.22
2018-03-18T04:04:53.844Z,-5.13
2018-03-18T04:05:54.588Z,-5.18
2018-03-18T04:06:53.732Z,-5.19
2018-03-18T04:07:53.748Z,-5.32
2018-03-18T04:08:53.636Z,-5.30
2018-03-18T04:09:53.588Z,-5.30
2018-03-18T04:10:53.570Z,-5.27
2018-03-18T04:11:53.514Z,-5.26
2018-03-18T04:12:53.441Z,-5.26
2018-03-18T04:13:53.409Z,-5.25
2018-03-18T04:14:53.396Z,-5.26
2018-03-18T04:15:53.291Z,-5.37
2018-03-18T04:16:55.208Z,-5.35
2018-03-18T04:17:53.178Z,-5.32
2018-03-18T04:18:53.131Z,-5.26
2018-03-18T04:19:53.120Z,-5.27
2018-03-18T04:20:53.081Z,-5.23
2018-03-18T04:21:53.053Z,-5.33
2018-03-18T04:22:53.010Z,-5.30
2018-03-18T04:23:52.888Z,-5.32
2018-03-18T04:24:53.584Z,-5.29
2018-03-18T04:25:52.799Z,-5.37
2018-03-18T04:26:52.771Z,-5.37
2018-03-18T04:27:52.725Z,-5.33
2018-03-18T04:28:52.667Z,-5.36
2018-03-18T04:29:52.594Z,-5.37
2018-03-18T04:30:52.607Z,-5.39
2018-03-18T04:31:52.511Z,-5.37
2018-03-18T04:32:52.478Z,-5.36
2018-03-18T04:33:52.459Z,-5.37
2018-03-18T04:34:52.369Z,-5.32
2018-03-18T04:35:52.314Z,-5.36
2018-03-18T04:36:52.282Z,-5.32
2018-03-18T04:37:52.222Z,-5.33
2018-03-18T04:38:52.198Z,-5.37
2018-03-18T04:39:52.105Z,-5.32
2018-03-18T04:40:52.078Z,-5.46
2018-03-18T04:41:52.047Z,-5.37
2018-03-18T04:42:51.972Z,-5.36
2018-03-18T04:43:51.915Z,-5.46
2018-03-18T04:44:52.586Z,-5.39
2018-03-18T04:45:51.839Z,-5.44
2018-03-18T04:46:51.771Z,-5.44
2018-03-18T04:47:51.896Z,-5.37
2018-03-18T04:48:51.668Z,-5.43
2018-03-18T04:49:51.641Z,-5.43
2018-03-18T04:50:51.562Z,-5.39
2018-03-18T04:51:51.541Z,-5.53
2018-03-18T04:52:51.498Z,-5.47
2018-03-18T04:53:51.431Z,-5.44
2018-03-18T04:54:51.399Z,-5.51
2018-03-18T04:55:51.391Z,-5.50
2018-03-18T04:56:51.337Z,-5.48
2018-03-18T04:57:51.277Z,-5.46
2018-03-18T04:58:51.279Z,-5.46
2018-03-18T04:59:51.152Z,-5.50
2018-03-18T05:00:51.097Z,-5.54
2018-03-18T05:01:51.052Z,-5.53
2018-03-18T05:02:51.017Z,-5.51
2018-03-18T05:03:50.933Z,-5.50
2018-03-18T05:04:50.931Z,-5.59
2018-03-18T05:05:50.858Z,-5.54
2018-03-18T05:06:50.817Z,-5.47
2018-03-18T05:07:50.750Z,-5.53
2018-03-18T05:08:50.710Z,-5.53
2018-03-18T05:09:50.650Z,-5.51
2018-03-18T05:10:50.630Z,-5.50
2018-03-18T05:11:50.568Z,-5.59
2018-03-18T05:12:50.529Z,-5.53
2018-03-18T05:13:50.463Z,-5.62
2018-03-18T05:14:50.400Z,-5.59
2018-03-18T05:15:50.363Z,-5.53
2018-03-18T05:16:50.294Z,-5.50
2018-03-18T05:17:50.259Z,-5.54
2018-03-18T05:18:50.217Z,-5.48
2018-03-18T05:19:50.172Z,-5.54
2018-03-18T05:20:50.114Z,-5.50
2018-03-18T05:21:50.071Z,-5.48
2018-03-18T05:22:50.039Z,-5.50
2018-03-18T05:23:49.946Z,-5.54
2018-03-18T05:24:49.963Z,-5.50
2018-03-18T05:25:49.868Z,-5.48
2018-03-18T05:26:49.861Z,-5.46
2018-03-18T05:27:49.756Z,-5.47
2018-03-18T05:28:49.707Z,-5.48
2018-03-18T05:29:49.665Z,-5.55
2018-03-18T05:30:49.606Z,-5.48
2018-03-18T05:31:49.593Z,-5.50
2018-03-18T05:32:49.566Z,-5.50
2018-03-18T05:33:49.526Z,-5.53
2018-03-18T05:34:49.409Z,-5.50
2018-03-18T05:35:49.353Z,-5.53
2018-03-18T05:36:49.315Z,-5.53
2018-03-18T05:37:49.261Z,-5.50
2018-03-18T05:38:49.255Z,-5.50
2018-03-18T05:39:50.091Z,-5.54
2018-03-18T05:40:49.119Z,-5.51
2018-03-18T05:41:49.076Z,-5.48
2018-03-18T05:42:49.028Z,-5.50
2018-03-18T05:43:48.994Z,-5.50
2018-03-18T05:44:48.952Z,-5.53
2018-03-18T05:45:48.920Z,-5.51
2018-03-18T05:46:48.836Z,-5.43
2018-03-18T05:47:48.938Z,-5.48
2018-03-18T05:48:49.597Z,-5.54
2018-03-18T05:49:48.688Z,-5.48
2018-03-18T05:50:48.676Z,-5.53
2018-03-18T05:51:48.583Z,-5.54
2018-03-18T05:52:48.556Z,-5.53
2018-03-18T05:53:48.506Z,-5.53
2018-03-18T05:54:48.450Z,-5.53
2018-03-18T05:55:48.394Z,-5.55
2018-03-18T05:56:48.354Z,-5.55
2018-03-18T05:57:48.300Z,-5.55
2018-03-18T05:58:48.253Z,-5.51
2018-03-18T05:59:48.208Z,-5.53
2018-03-18T06:00:48.205Z,-5.54
2018-03-18T06:01:48.085Z,-5.51
2018-03-18T06:02:48.056Z,-5.54
2018-03-18T06:03:47.997Z,-5.53
2018-03-18T06:04:47.958Z,-5.51
2018-03-18T06:05:47.912Z,-5.53
2018-03-18T06:06:47.852Z,-5.51
2018-03-18T06:07:47.792Z,-5.51
2018-03-18T06:08:47.756Z,-5.61
2018-03-18T06:09:47.692Z,-5.53
2018-03-18T06:10:47.666Z,-5.53
2018-03-18T06:11:47.607Z,-5.50
2018-03-18T06:12:47.576Z,-5.51
2018-03-18T06:13:48.092Z,-5.54
2018-03-18T06:14:47.458Z,-5.54
2018-03-18T06:15:47.450Z,-5.53
2018-03-18T06:16:47.358Z,-5.53
2018-03-18T06:17:47.350Z,-5.53
2018-03-18T06:18:47.276Z,-5.39
2018-03-18T06:19:47.222Z,-5.46
2018-03-18T06:20:47.275Z,-5.29
2018-03-18T06:21:47.100Z,-5.41
2018-03-18T06:22:47.055Z,-5.37
2018-03-18T06:23:47.005Z,-5.30
2018-03-18T06:24:46.978Z,-5.46
2018-03-18T06:25:46.928Z,-5.37
2018-03-18T06:26:46.862Z,-5.43
2018-03-18T06:27:46.846Z,-5.32
2018-03-18T06:28:46.775Z,-5.29
2018-03-18T06:29:46.730Z,-5.43
2018-03-18T06:30:46.680Z,-5.50
2018-03-18T06:31:46.636Z,-5.47
2018-03-18T06:32:46.619Z,-5.37
2018-03-18T06:33:46.572Z,-5.29
2018-03-18T06:34:46.486Z,-5.27
2018-03-18T06:35:46.435Z,-5.27
2018-03-18T06:36:46.403Z,-5.35
2018-03-18T06:37:46.367Z,-5.29
2018-03-18T06:38:46.292Z,-5.30
2018-03-18T06:39:46.262Z,-5.26
2018-03-18T06:40:46.237Z,-5.27
2018-03-18T06:41:46.165Z,-5.25
2018-03-18T06:43:46.044Z,-5.03
2018-03-18T06:44:46.016Z,-5.00
2018-03-18T06:45:45.948Z,-4.78
2018-03-18T06:46:45.897Z,-4.89
2018-03-18T06:47:45.930Z,-4.90
2018-03-18T06:48:45.823Z,-5.08
2018-03-18T06:49:45.781Z,-4.74
2018-03-18T06:50:45.725Z,-4.83
2018-03-18T06:51:46.389Z,-5.22
2018-03-18T06:52:45.622Z,-5.08
2018-03-18T06:53:45.601Z,-5.30
2018-03-18T06:54:45.618Z,-5.03
2018-03-18T06:55:45.502Z,-5.08
2018-03-18T06:56:45.415Z,-4.95
2018-03-18T06:57:45.388Z,-5.30
2018-03-18T06:58:45.323Z,-5.32
2018-03-18T06:59:45.279Z,-5.14
2018-03-18T07:00:45.266Z,-5.04
2018-03-18T07:01:45.203Z,-5.06
2018-03-18T07:02:45.120Z,-4.92
2018-03-18T07:03:45.125Z,-4.96
2018-03-18T07:04:46.683Z,-4.65
2018-03-18T07:05:45.070Z,-4.90
2018-03-18T07:06:44.961Z,-4.86
2018-03-18T07:07:44.915Z,-5.06
2018-03-18T07:08:44.836Z,-5.08
2018-03-18T07:09:44.783Z,-4.97
2018-03-18T07:10:44.748Z,-5.17
2018-03-18T07:11:44.699Z,-5.18
2018-03-18T07:12:44.653Z,-5.36
2018-03-18T07:13:44.590Z,-5.03
2018-03-18T07:14:44.551Z,-5.17
2018-03-18T07:15:44.530Z,-5.08
2018-03-18T07:16:44.461Z,-5.08
2018-03-18T07:17:44.404Z,-4.78
2018-03-18T07:18:44.370Z,-4.97
2018-03-18T07:19:44.339Z,-4.71
2018-03-18T07:20:44.271Z,-4.50
2018-03-18T07:21:44.227Z,-5.03
2018-03-18T07:22:44.182Z,-5.06
2018-03-18T07:23:44.188Z,-4.78
2018-03-18T07:24:44.236Z,-4.56
2018-03-18T07:25:44.066Z,-4.86
2018-03-18T07:26:44.048Z,-4.83
2018-03-18T07:27:43.944Z,-4.71
2018-03-18T07:28:43.886Z,-4.38
2018-03-18T07:29:43.847Z,-4.78
2018-03-18T07:30:43.807Z,-4.58
2018-03-18T07:31:43.832Z,-4.61
2018-03-18T07:32:43.694Z,-4.83
2018-03-18T07:33:43.662Z,-4.81
2018-03-18T07:34:43.621Z,-4.68
2018-03-18T07:35:43.565Z,-4.43
2018-03-18T07:36:43.579Z,-4.39
2018-03-18T07:37:43.998Z,-3.96
2018-03-18T07:38:43.506Z,-4.47
2018-03-18T07:39:43.378Z,-4.22
2018-03-18T07:40:43.365Z,-4.18
2018-03-18T07:41:43.279Z,-4.12
2018-03-18T07:42:43.243Z,-4.20
2018-03-18T07:43:43.220Z,-3.85
2018-03-18T07:44:43.174Z,-4.15
2018-03-18T07:45:43.121Z,-4.72
2018-03-18T07:46:43.050Z,-4.75
2018-03-18T07:47:42.987Z,-4.24
2018-03-18T07:48:42.998Z,-4.33
2018-03-18T07:49:43.051Z,-4.67
2018-03-18T07:50:42.863Z,-3.72
2018-03-18T07:51:42.836Z,-3.59
2018-03-18T07:52:42.784Z,-3.97
2018-03-18T07:53:42.826Z,-4.10
2018-03-18T07:54:42.670Z,-4.40
2018-03-18T07:55:42.678Z,-4.43
2018-03-18T07:56:42.598Z,-4.42
2018-03-18T07:57:42.635Z,-4.49
2018-03-18T07:58:42.497Z,-4.14
2018-03-18T07:59:42.535Z,-3.79
2018-03-18T08:00:42.406Z,-3.97
2018-03-18T08:01:42.350Z,-3.90
2018-03-18T08:02:42.325Z,-4.33
2018-03-18T08:03:42.254Z,-4.04
2018-03-18T08:04:42.224Z,-3.81
2018-03-18T08:05:42.198Z,-3.81
2018-03-18T08:06:42.150Z,-3.88
2018-03-18T08:07:42.086Z,-4.22
2018-03-18T08:08:42.044Z,-4.22
2018-03-18T08:09:42.015Z,-4.42
2018-03-18T08:10:42.019Z,-4.15
2018-03-18T08:11:41.928Z,-4.22
2018-03-18T08:12:41.867Z,-4.29
2018-03-18T08:13:41.804Z,-3.83
2018-03-18T08:14:41.804Z,-4.17
2018-03-18T08:15:41.743Z,-3.63
2018-03-18T08:16:41.722Z,-4.40
2018-03-18T08:17:41.644Z,-4.38
2018-03-18T08:18:41.580Z,-4.14
2018-03-18T08:19:41.612Z,-4.10
2018-03-18T08:20:41.538Z,-3.85
2018-03-18T08:21:41.499Z,-3.96
2018-03-18T08:22:41.412Z,-4.12
2018-03-18T08:23:41.382Z,-3.93
2018-03-18T08:24:41.329Z,-4.39
2018-03-18T08:25:41.276Z,-3.75
2018-03-18T08:26:41.271Z,-3.48
2018-03-18T08:27:41.228Z,-3.42
2018-03-18T08:28:41.145Z,-3.49
2018-03-18T08:29:41.088Z,-3.83
2018-03-18T08:30:41.050Z,-3.31
2018-03-18T08:31:41.014Z,-2.92
2018-03-18T08:32:40.950Z,-3.33
2018-03-18T08:33:40.897Z,-3.62
2018-03-18T08:34:40.871Z,-4.12
2018-03-18T08:35:40.825Z,-4.00
2018-03-18T08:36:40.836Z,-4.04
2018-03-18T08:37:40.754Z,-3.83
2018-03-18T08:38:40.713Z,-3.36
2018-03-18T08:39:40.689Z,-3.35
2018-03-18T08:40:40.602Z,-3.91
2018-03-18T08:41:40.570Z,-3.60
2018-03-18T08:42:40.521Z,-3.69
2018-03-18T08:43:40.491Z,-3.79
2018-03-18T08:44:40.434Z,-3.41
2018-03-18T08:45:40.400Z,-3.07
2018-03-18T08:46:40.354Z,-3.52
2018-03-18T08:47:40.296Z,-3.52
2018-03-18T08:48:40.310Z,-3.94
2018-03-18T08:49:40.199Z,-3.67
2018-03-18T08:50:41.134Z,-3.25
2018-03-18T08:51:40.152Z,-2.81
2018-03-18T08:52:40.085Z,-3.09
2018-03-18T08:53:40.025Z,-3.60
2018-03-18T08:54:39.991Z,-3.48
2018-03-18T08:55:40.130Z,-3.27
2018-03-18T08:56:39.907Z,-3.25
2018-03-18T08:57:39.858Z,-3.06
2018-03-18T08:58:39.835Z,-3.38
2018-03-18T08:59:39.789Z,-3.81
2018-03-18T09:00:39.773Z,-3.45
2018-03-18T09:01:39.686Z,-3.25
2018-03-18T09:02:39.651Z,-2.92
2018-03-18T09:03:39.609Z,-2.92
2018-03-18T09:04:39.564Z,-3.12
2018-03-18T09:05:39.517Z,-3.53
2018-03-18T09:06:39.928Z,-3.76
2018-03-18T09:07:39.426Z,-3.28
2018-03-18T09:08:39.396Z,-2.89
2018-03-18T09:09:39.370Z,-3.05
2018-03-18T09:10:39.305Z,-2.73
2018-03-18T09:11:39.289Z,-2.12
2018-03-18T09:12:39.345Z,-2.52
2018-03-18T09:13:39.216Z,-3.25
2018-03-18T09:14:39.127Z,-3.57
2018-03-18T09:15:39.157Z,-3.72
2018-03-18T09:16:39.135Z,-3.63
2018-03-18T09:17:39.034Z,-3.21
2018-03-18T09:18:38.953Z,-2.97
2018-03-18T09:19:38.967Z,-2.63
2018-03-18T09:20:38.862Z,-2.46
2018-03-18T09:21:38.812Z,-2.96
2018-03-18T09:22:38.787Z,-3.21
2018-03-18T09:23:38.757Z,-2.88
2018-03-18T09:24:38.682Z,-3.53
2018-03-18T09:25:38.644Z,-3.48
2018-03-18T09:26:38.611Z,-3.14
2018-03-18T09:27:38.571Z,-3.06
2018-03-18T09:28:38.504Z,-3.75
2018-03-18T09:29:38.469Z,-3.60
2018-03-18T09:30:38.433Z,-3.49
2018-03-18T09:31:38.391Z,-2.91
2018-03-18T09:32:38.383Z,-3.20
2018-03-18T09:33:38.311Z,-3.30
2018-03-18T09:34:38.264Z,-2.85
2018-03-18T09:35:38.263Z,-3.07
2018-03-18T09:36:38.212Z,-2.68
2018-03-18T09:37:38.141Z,-2.35
2018-03-18T09:38:38.619Z,-2.64
2018-03-18T09:39:38.134Z,-2.71
2018-03-18T09:40:38.027Z,-2.84
2018-03-18T09:41:37.968Z,-2.78
2018-03-18T09:42:37.938Z,-3.30
2018-03-18T09:43:37.999Z,-3.02
2018-03-18T09:44:37.863Z,-1.90
2018-03-18T09:45:37.808Z,-2.43
2018-03-18T09:46:37.763Z,-2.37
2018-03-18T09:47:37.753Z,-1.54
2018-03-18T09:48:37.679Z,-1.92
2018-03-18T09:49:37.658Z,-1.88
2018-03-18T09:50:37.589Z,-2.16
2018-03-18T09:51:37.554Z,-2.88
2018-03-18T09:52:37.522Z,-2.64
2018-03-18T09:53:37.497Z,-3.00
2018-03-18T09:54:37.432Z,-3.00
2018-03-18T09:55:37.413Z,-2.13
2018-03-18T09:56:37.351Z,-1.49
2018-03-18T09:57:37.311Z,-1.20
2018-03-18T09:58:37.273Z,0.02
2018-03-18T09:59:37.229Z,-0.98
2018-03-18T10:00:37.201Z,-0.29
2018-03-18T10:01:37.140Z,-0.78
2018-03-18T10:02:37.112Z,-0.58
2018-03-18T10:03:37.067Z,-1.25
2018-03-18T10:04:37.021Z,-2.50
2018-03-18T10:05:36.989Z,-2.84
2018-03-18T10:06:36.954Z,-1.88
2018-03-18T10:07:36.914Z,-0.80
2018-03-18T10:08:36.888Z,-0.97
2018-03-18T10:09:36.884Z,-1.87
2018-03-18T10:10:36.799Z,-0.92
2018-03-18T10:11:36.754Z,-1.09
2018-03-18T10:12:36.743Z,-0.94
2018-03-18T10:13:36.687Z,-1.20
2018-03-18T10:14:36.624Z,-0.83
2018-03-18T10:15:36.584Z,-0.42
2018-03-18T10:16:36.548Z,-0.79
2018-03-18T10:17:36.543Z,-0.52
2018-03-18T10:18:36.494Z,-1.48
2018-03-18T10:19:36.465Z,-0.80
2018-03-18T10:20:36.427Z,-0.42
2018-03-18T10:21:36.369Z,-0.40
2018-03-18T10:22:36.321Z,-0.58
2018-03-18T10:23:36.289Z,-0.64
2018-03-18T10:24:36.258Z,-0.49
2018-03-18T10:25:36.217Z,-0.34
2018-03-18T10:26:36.235Z,0.29
2018-03-18T10:27:36.155Z,-0.08
2018-03-18T10:28:36.100Z,-0.10
2018-03-18T10:29:36.077Z,-0.51
2018-03-18T10:30:36.098Z,-0.86
2018-03-18T10:31:35.974Z,0.18
2018-03-18T10:32:35.997Z,0.42
2018-03-18T10:33:35.946Z,-0.39
2018-03-18T10:34:35.869Z,-0.42
2018-03-18T10:35:35.841Z,-0.16
2018-03-18T10:36:35.815Z,0.36
2018-03-18T10:37:35.758Z,-0.51
2018-03-18T10:38:35.748Z,-0.83
2018-03-18T10:39:35.789Z,-0.69
2018-03-18T10:40:35.739Z,-1.01
2018-03-18T10:41:35.679Z,-0.79
2018-03-18T10:42:35.624Z,-1.20
2018-03-18T10:43:35.579Z,0.55
2018-03-18T10:44:35.526Z,-0.57
2018-03-18T10:45:35.464Z,0.17
2018-03-18T10:46:35.441Z,1.47
2018-03-18T10:47:35.400Z,1.40
2018-03-18T10:48:35.375Z,1.52
2018-03-18T10:49:35.391Z,0.83
2018-03-18T10:50:35.282Z,-0.43
2018-03-18T10:51:35.290Z,0.86
2018-03-18T10:52:35.303Z,1.63
2018-03-18T10:53:35.182Z,1.15
2018-03-18T10:54:35.155Z,1.15
2018-03-18T10:55:35.110Z,0.83
2018-03-18T10:56:35.197Z,1.59
2018-03-18T10:57:35.057Z,0.87
2018-03-18T10:58:35.037Z,0.61
2018-03-18T10:59:35.019Z,-0.72
2018-03-18T11:00:34.945Z,0.08
2018-03-18T11:01:34.904Z,0.96
2018-03-18T11:02:34.927Z,0.72
2018-03-18T11:03:34.832Z,-0.21
2018-03-18T11:04:34.805Z,-0.72
2018-03-18T11:05:34.773Z,-1.13
2018-03-18T11:06:34.750Z,-0.94
2018-03-18T11:07:34.698Z,-0.25
2018-03-18T11:08:34.671Z,-0.52
2018-03-18T11:09:34.635Z,-0.54
2018-03-18T11:10:34.591Z,-1.10
2018-03-18T11:11:34.550Z,-1.30
2018-03-18T11:12:34.576Z,-1.64
2018-03-18T11:13:34.488Z,-0.61
2018-03-18T11:14:34.472Z,-1.02
2018-03-18T11:15:34.435Z,-1.22
2018-03-18T11:16:34.369Z,-1.80
2018-03-18T11:17:34.335Z,-1.51
2018-03-18T11:18:34.317Z,-1.02
2018-03-18T11:19:34.259Z,-0.31
2018-03-18T11:20:34.237Z,-0.92
2018-03-18T11:21:34.189Z,-1.02
2018-03-18T11:22:34.175Z,-0.80
2018-03-18T11:23:34.139Z,-0.80
2018-03-18T11:24:34.075Z,-1.15
2018-03-18T11:25:34.067Z,-1.05
2018-03-18T11:26:34.033Z,-1.59
2018-03-18T11:27:33.975Z,-1.16
2018-03-18T11:28:33.954Z,-1.40
2018-03-18T11:29:33.887Z,-0.69
2018-03-18T11:30:33.855Z,0.02
2018-03-18T11:31:33.848Z,-0.85
2018-03-18T11:32:33.778Z,-0.16
2018-03-18T11:33:33.769Z,-0.05
2018-03-18T11:34:33.737Z,-0.39
2018-03-18T11:35:33.676Z,-0.89
2018-03-18T11:36:33.658Z,-1.16
2018-03-18T11:37:33.602Z,-0.37
2018-03-18T11:38:33.596Z,-0.11
2018-03-18T11:39:33.529Z,0.15
2018-03-18T11:40:33.507Z,0.42
2018-03-18T11:41:33.453Z,0.65
2018-03-18T11:42:33.451Z,0.07
2018-03-18T11:43:33.390Z,0.10
2018-03-18T11:44:33.367Z,-0.91
2018-03-18T11:45:33.311Z,-0.60
2018-03-18T11:46:33.274Z,-1.12
2018-03-18T11:47:33.302Z,-0.91
2018-03-18T11:48:33.211Z,-0.83
2018-03-18T11:49:33.173Z,-1.23
2018-03-18T11:50:33.139Z,-1.61
2018-03-18T11:51:33.072Z,-1.41
2018-03-18T11:52:33.036Z,-1.48
2018-03-18T11:53:33.024Z,-0.60
2018-03-18T11:54:32.968Z,-0.91
2018-03-18T11:55:32.932Z,-0.42
2018-03-18T11:56:32.913Z,-0.31
2018-03-18T11:57:32.861Z,0.14
2018-03-18T11:58:32.863Z,-1.12
2018-03-18T11:59:32.789Z,-0.37
2018-03-18T12:00:32.735Z,-0.05
2018-03-18T12:01:32.692Z,-0.19
2018-03-18T12:02:32.669Z,-0.37
2018-03-18T12:03:32.647Z,-1.54
2018-03-18T12:04:32.584Z,-0.62
2018-03-18T12:05:32.556Z,-1.27
2018-03-18T12:06:32.535Z,-1.20
2018-03-18T12:07:32.494Z,-0.97
2018-03-18T12:08:32.426Z,-0.79
2018-03-18T12:09:32.425Z,-0.91
2018-03-18T12:10:32.371Z,-0.64
2018-03-18T12:11:32.318Z,-0.23
2018-03-18T12:12:32.302Z,-0.61
2018-03-18T12:13:32.306Z,-0.80
2018-03-18T12:14:32.216Z,-0.28
2018-03-18T12:15:32.173Z,-0.28
2018-03-18T12:16:32.133Z,-0.34
2018-03-18T12:17:32.096Z,-0.58
2018-03-18T12:18:32.042Z,-1.05
2018-03-18T12:19:32.110Z,-1.23
2018-03-18T12:20:31.999Z,-1.70
2018-03-18T12:21:31.958Z,-1.02
2018-03-18T12:22:31.941Z,-0.91
2018-03-18T12:23:31.880Z,-1.34
2018-03-18T12:24:31.816Z,-1.30
2018-03-18T12:25:31.779Z,-1.20
2018-03-18T12:26:31.762Z,-0.49
2018-03-18T12:27:31.756Z,-0.70
2018-03-18T12:28:31.665Z,-0.37
2018-03-18T12:29:31.631Z,-0.89
2018-03-18T12:30:31.615Z,-0.49
2018-03-18T12:31:31.555Z,0.03
2018-03-18T12:32:31.508Z,-0.28
2018-03-18T12:33:31.487Z,-0.42
2018-03-18T12:34:31.449Z,-1.15
2018-03-18T12:35:31.518Z,-1.30
2018-03-18T12:36:31.358Z,-1.19
2018-03-18T12:37:31.379Z,-0.42
2018-03-18T12:38:31.288Z,-0.43
2018-03-18T12:39:31.241Z,-0.67
2018-03-18T12:40:31.212Z,-1.12
2018-03-18T12:41:31.176Z,-1.30
2018-03-18T12:42:31.155Z,-1.49
2018-03-18T12:43:31.123Z,-1.20
2018-03-18T12:44:31.054Z,-1.10
2018-03-18T12:45:31.017Z,-0.94
2018-03-18T12:46:30.973Z,-1.19
2018-03-18T12:47:30.941Z,-1.33
2018-03-18T12:48:30.901Z,-1.28
2018-03-18T12:49:30.888Z,-1.45
2018-03-18T12:50:30.937Z,-0.61
2018-03-18T12:51:30.892Z,-0.85
2018-03-18T12:52:30.779Z,-0.58
2018-03-18T12:53:30.719Z,-0.37
2018-03-18T12:54:30.656Z,-0.76
2018-03-18T12:55:30.608Z,-0.23
2018-03-18T12:56:30.665Z,-0.34
2018-03-18T12:57:30.703Z,-0.54
2018-03-18T12:58:30.509Z,-0.83
2018-03-18T12:59:30.483Z,-1.13
2018-03-18T13:00:30.456Z,-1.28
2018-03-18T13:01:30.441Z,-1.35
2018-03-18T13:02:30.337Z,-0.64
2018-03-18T13:03:30.378Z,-0.42
2018-03-18T13:04:30.247Z,-1.07
2018-03-18T13:05:30.308Z,-0.60
2018-03-18T13:06:30.172Z,-0.72
2018-03-18T13:07:30.195Z,-0.52
2018-03-18T13:08:30.094Z,-0.05
2018-03-18T13:09:30.059Z,-0.42
2018-03-18T13:10:30.036Z,-0.47
2018-03-18T13:11:29.983Z,-0.80
2018-03-18T13:12:29.943Z,-0.89
2018-03-18T13:13:29.888Z,-0.97
2018-03-18T13:14:29.845Z,-0.92
2018-03-18T13:15:29.816Z,-1.17
2018-03-18T13:16:29.773Z,-0.85